Řízení letového provozu České republiky
Letiste: LKMT Aktualizace: 27.05.2018 00:31:06  UTC
 METAR LKMT 27.05. 00:30 ...
METAR LKMT 270030Z VRB02KT CAVOK 14/12 Q1022 NOSIG RMK REG QNH 1019=
 TAF LKMT 26.05. 23:00 ...
TAF LKMT 262300Z 2700/2806 VRB02KT CAVOK      TEMPO 2707/2717 03010KT 9999 SCT060TCU=